sensor_id;sensor_type;location;lat;lon;timestamp;pressure;altitude;pressure_sealevel;temperature;humidity
14273;BME280;7220;49.450;11.052;2023-05-20T00:02:57;98359.47;;;14.67;76.10
14273;BME280;7220;49.450;11.052;2023-05-20T00:06:59;98357.75;;;14.66;76.21
14273;BME280;7220;49.450;11.052;2023-05-20T00:11:00;98355.84;;;14.68;75.83
14273;BME280;7220;49.450;11.052;2023-05-20T00:15:00;98345.41;;;14.63;76.95
14273;BME280;7220;49.450;11.052;2023-05-20T00:19:01;98353.06;;;14.70;76.64
14273;BME280;7220;49.450;11.052;2023-05-20T00:23:04;98337.00;;;14.70;76.90
14273;BME280;7220;49.450;11.052;2023-05-20T00:27:04;98337.97;;;14.69;77.13
14273;BME280;7220;49.450;11.052;2023-05-20T00:31:04;98336.34;;;14.66;77.75
14273;BME280;7220;49.450;11.052;2023-05-20T00:35:05;98335.47;;;14.65;77.28
14273;BME280;7220;49.450;11.052;2023-05-20T00:39:06;98322.03;;;14.67;78.21
14273;BME280;7220;49.450;11.052;2023-05-20T00:43:06;98324.59;;;14.69;77.88
14273;BME280;7220;49.450;11.052;2023-05-20T00:47:06;98328.88;;;14.71;78.41
14273;BME280;7220;49.450;11.052;2023-05-20T00:51:07;98325.88;;;14.76;78.61
14273;BME280;7220;49.450;11.052;2023-05-20T00:55:07;98332.16;;;14.62;79.24
14273;BME280;7220;49.450;11.052;2023-05-20T00:59:08;98328.22;;;14.67;79.43
14273;BME280;7220;49.450;11.052;2023-05-20T01:03:08;98321.59;;;14.73;78.73
14273;BME280;7220;49.450;11.052;2023-05-20T01:07:09;98317.31;;;14.71;79.90
14273;BME280;7220;49.450;11.052;2023-05-20T01:11:16;98317.91;;;14.61;79.82
14273;BME280;7220;49.450;11.052;2023-05-20T01:15:20;98331.72;;;14.55;79.84
14273;BME280;7220;49.450;11.052;2023-05-20T01:19:37;98312.75;;;14.58;80.49
14273;BME280;7220;49.450;11.052;2023-05-20T01:23:40;98304.97;;;14.55;80.16
14273;BME280;7220;49.450;11.052;2023-05-20T01:27:41;98305.94;;;14.54;80.95
14273;BME280;7220;49.450;11.052;2023-05-20T01:31:41;98303.38;;;14.52;81.69
14273;BME280;7220;49.450;11.052;2023-05-20T01:35:42;98301.84;;;14.48;82.11
14273;BME280;7220;49.450;11.052;2023-05-20T01:39:42;98304.31;;;14.51;81.52
14273;BME280;7220;49.450;11.052;2023-05-20T01:43:43;98304.31;;;14.51;81.93
14273;BME280;7220;49.450;11.052;2023-05-20T01:47:44;98300.13;;;14.47;82.06
14273;BME280;7220;49.450;11.052;2023-05-20T01:51:45;98297.56;;;14.46;82.80
14273;BME280;7220;49.450;11.052;2023-05-20T01:55:45;98306.56;;;14.45;82.58
14273;BME280;7220;49.450;11.052;2023-05-20T01:59:45;98303.75;;;14.46;82.79
14273;BME280;7220;49.450;11.052;2023-05-20T02:03:46;98293.19;;;14.45;82.41
14273;BME280;7220;49.450;11.052;2023-05-20T02:07:46;98293.28;;;14.43;82.96
14273;BME280;7220;49.450;11.052;2023-05-20T02:11:47;98281.06;;;14.39;83.33
14273;BME280;7220;49.450;11.052;2023-05-20T02:15:47;98279.72;;;14.33;82.68
14273;BME280;7220;49.450;11.052;2023-05-20T02:19:47;98291.56;;;14.29;83.72
14273;BME280;7220;49.450;11.052;2023-05-20T02:23:48;98276.69;;;14.25;83.99
14273;BME280;7220;49.450;11.052;2023-05-20T02:27:48;98280.63;;;14.19;84.18
14273;BME280;7220;49.450;11.052;2023-05-20T02:31:49;98276.53;;;14.14;84.39
14273;BME280;7220;49.450;11.052;2023-05-20T02:35:49;98275.06;;;14.10;84.68
14273;BME280;7220;49.450;11.052;2023-05-20T02:39:50;98287.09;;;14.02;85.35
14273;BME280;7220;49.450;11.052;2023-05-20T02:43:50;98278.69;;;14.09;85.40
14273;BME280;7220;49.450;11.052;2023-05-20T02:47:50;98288.38;;;13.97;85.80
14273;BME280;7220;49.450;11.052;2023-05-20T02:51:51;98297.84;;;13.88;86.35
14273;BME280;7220;49.450;11.052;2023-05-20T02:55:51;98298.91;;;13.85;86.11
14273;BME280;7220;49.450;11.052;2023-05-20T02:59:51;98298.06;;;13.85;86.55
14273;BME280;7220;49.450;11.052;2023-05-20T03:03:51;98291.84;;;13.84;86.71
14273;BME280;7220;49.450;11.052;2023-05-20T03:07:52;98302.75;;;13.81;86.94
14273;BME280;7220;49.450;11.052;2023-05-20T03:11:52;98299.31;;;13.79;87.68
14273;BME280;7220;49.450;11.052;2023-05-20T03:15:52;98305.72;;;13.77;87.88
14273;BME280;7220;49.450;11.052;2023-05-20T03:19:53;98302.38;;;13.73;88.17
14273;BME280;7220;49.450;11.052;2023-05-20T03:23:53;98308.09;;;13.81;87.51
14273;BME280;7220;49.450;11.052;2023-05-20T03:27:54;98310.47;;;13.71;88.46
14273;BME280;7220;49.450;11.052;2023-05-20T03:31:54;98310.66;;;13.83;87.84
14273;BME280;7220;49.450;11.052;2023-05-20T03:35:54;98316.00;;;13.83;87.80
14273;BME280;7220;49.450;11.052;2023-05-20T03:39:55;98313.25;;;13.70;88.90
14273;BME280;7220;49.450;11.052;2023-05-20T03:43:55;98317.66;;;13.71;89.02
14273;BME280;7220;49.450;11.052;2023-05-20T03:47:55;98308.38;;;13.77;88.47
14273;BME280;7220;49.450;11.052;2023-05-20T03:51:56;98295.22;;;13.73;88.50
14273;BME280;7220;49.450;11.052;2023-05-20T03:55:56;98298.66;;;13.76;89.03
14273;BME280;7220;49.450;11.052;2023-05-20T03:59:56;98295.97;;;13.76;89.37
14273;BME280;7220;49.450;11.052;2023-05-20T04:03:56;98302.63;;;13.83;88.90
14273;BME280;7220;49.450;11.052;2023-05-20T04:07:57;98303.34;;;13.72;89.45
14273;BME280;7220;49.450;11.052;2023-05-20T04:11:57;98305.13;;;13.71;89.96
14273;BME280;7220;49.450;11.052;2023-05-20T04:15:58;98299.72;;;13.73;89.99
14273;BME280;7220;49.450;11.052;2023-05-20T04:20:00;98291.69;;;13.73;90.17
14273;BME280;7220;49.450;11.052;2023-05-20T04:24:01;98295.63;;;13.67;90.80
14273;BME280;7220;49.450;11.052;2023-05-20T04:28:01;98291.22;;;13.66;90.77
14273;BME280;7220;49.450;11.052;2023-05-20T04:32:02;98288.56;;;13.66;91.36
14273;BME280;7220;49.450;11.052;2023-05-20T04:36:03;98289.69;;;13.77;90.54
14273;BME280;7220;49.450;11.052;2023-05-20T04:40:04;98299.31;;;13.79;90.73
14273;BME280;7220;49.450;11.052;2023-05-20T04:44:05;98293.56;;;13.85;90.35
14273;BME280;7220;49.450;11.052;2023-05-20T04:48:06;98288.69;;;13.92;90.27
14273;BME280;7220;49.450;11.052;2023-05-20T04:52:06;98297.59;;;13.78;91.52
14273;BME280;7220;49.450;11.052;2023-05-20T04:56:06;98296.53;;;13.81;91.33
14273;BME280;7220;49.450;11.052;2023-05-20T05:00:08;98282.16;;;13.96;90.29
14273;BME280;7220;49.450;11.052;2023-05-20T05:04:09;98291.53;;;13.89;90.74
14273;BME280;7220;49.450;11.052;2023-05-20T05:08:09;98287.50;;;13.96;91.17
14273;BME280;7220;49.450;11.052;2023-05-20T05:12:13;98274.84;;;14.13;90.39
14273;BME280;7220;49.450;11.052;2023-05-20T05:16:13;98266.19;;;14.22;89.65
14273;BME280;7220;49.450;11.052;2023-05-20T05:20:13;98277.22;;;14.30;88.85
14273;BME280;7220;49.450;11.052;2023-05-20T05:24:14;98261.06;;;14.32;89.20
14273;BME280;7220;49.450;11.052;2023-05-20T05:28:14;98264.63;;;14.32;89.40
14273;BME280;7220;49.450;11.052;2023-05-20T05:32:14;98255.13;;;14.54;88.76
14273;BME280;7220;49.450;11.052;2023-05-20T05:36:15;98263.25;;;14.40;89.35
14273;BME280;7220;49.450;11.052;2023-05-20T05:40:16;98246.25;;;14.66;87.90
14273;BME280;7220;49.450;11.052;2023-05-20T05:44:16;98269.50;;;14.79;87.21
14273;BME280;7220;49.450;11.052;2023-05-20T05:48:16;98255.47;;;14.88;86.78
14273;BME280;7220;49.450;11.052;2023-05-20T05:52:16;98257.72;;;14.94;86.63
14273;BME280;7220;49.450;11.052;2023-05-20T05:56:17;98257.59;;;14.83;87.23
14273;BME280;7220;49.450;11.052;2023-05-20T06:00:17;98258.22;;;14.99;86.47
14273;BME280;7220;49.450;11.052;2023-05-20T06:04:17;98256.50;;;15.11;85.70
14273;BME280;7220;49.450;11.052;2023-05-20T06:08:18;98256.28;;;15.14;85.38
14273;BME280;7220;49.450;11.052;2023-05-20T06:12:18;98240.88;;;15.18;85.13
14273;BME280;7220;49.450;11.052;2023-05-20T06:16:18;98237.34;;;15.18;85.06
14273;BME280;7220;49.450;11.052;2023-05-20T06:20:18;98233.13;;;15.26;83.55
14273;BME280;7220;49.450;11.052;2023-05-20T06:24:19;98232.72;;;15.20;84.39
14273;BME280;7220;49.450;11.052;2023-05-20T06:28:19;98233.56;;;15.33;83.52
14273;BME280;7220;49.450;11.052;2023-05-20T06:32:19;98229.84;;;15.47;82.57
14273;BME280;7220;49.450;11.052;2023-05-20T06:36:20;98241.13;;;15.39;82.41
14273;BME280;7220;49.450;11.052;2023-05-20T06:40:20;98228.78;;;15.50;82.52
14273;BME280;7220;49.450;11.052;2023-05-20T06:44:21;98233.16;;;15.51;82.26
14273;BME280;7220;49.450;11.052;2023-05-20T06:48:21;98236.91;;;15.48;82.68
14273;BME280;7220;49.450;11.052;2023-05-20T06:52:21;98236.69;;;15.51;82.63
14273;BME280;7220;49.450;11.052;2023-05-20T06:56:21;98223.81;;;15.56;81.75
14273;BME280;7220;49.450;11.052;2023-05-20T07:00:22;98216.69;;;15.68;80.53
14273;BME280;7220;49.450;11.052;2023-05-20T07:04:22;98220.75;;;15.74;79.99
14273;BME280;7220;49.450;11.052;2023-05-20T07:08:23;98215.03;;;15.78;80.65
14273;BME280;7220;49.450;11.052;2023-05-20T07:12:23;98218.34;;;15.82;80.26
14273;BME280;7220;49.450;11.052;2023-05-20T07:16:23;98223.06;;;15.91;79.34
14273;BME280;7220;49.450;11.052;2023-05-20T07:20:24;98220.88;;;15.97;78.91
14273;BME280;7220;49.450;11.052;2023-05-20T07:24:24;98218.00;;;16.11;77.91
14273;BME280;7220;49.450;11.052;2023-05-20T07:28:24;98195.84;;;16.20;77.48
14273;BME280;7220;49.450;11.052;2023-05-20T07:32:25;98198.78;;;16.29;77.20
14273;BME280;7220;49.450;11.052;2023-05-20T07:36:26;98199.03;;;16.37;76.20
14273;BME280;7220;49.450;11.052;2023-05-20T07:40:27;98196.88;;;16.42;75.31
14273;BME280;7220;49.450;11.052;2023-05-20T07:44:27;98191.25;;;16.45;75.36
14273;BME280;7220;49.450;11.052;2023-05-20T07:48:27;98195.78;;;16.56;74.93
14273;BME280;7220;49.450;11.052;2023-05-20T07:52:28;98191.41;;;16.78;74.28
14273;BME280;7220;49.450;11.052;2023-05-20T07:56:28;98188.84;;;16.87;74.13
14273;BME280;7220;49.450;11.052;2023-05-20T08:00:28;98188.38;;;16.94;73.10
14273;BME280;7220;49.450;11.052;2023-05-20T08:04:29;98196.91;;;16.99;72.25
14273;BME280;7220;49.450;11.052;2023-05-20T08:08:29;98193.84;;;17.03;71.75
14273;BME280;7220;49.450;11.052;2023-05-20T08:12:30;98189.09;;;17.18;72.14
14273;BME280;7220;49.450;11.052;2023-05-20T08:16:30;98185.38;;;17.31;72.21
14273;BME280;7220;49.450;11.052;2023-05-20T08:20:30;98168.75;;;17.48;71.53
14273;BME280;7220;49.450;11.052;2023-05-20T08:24:31;98160.91;;;17.57;70.46
14273;BME280;7220;49.450;11.052;2023-05-20T08:28:31;98169.91;;;17.67;69.74
14273;BME280;7220;49.450;11.052;2023-05-20T08:32:32;98163.59;;;17.89;69.17
14273;BME280;7220;49.450;11.052;2023-05-20T08:36:32;98152.84;;;17.89;68.85
14273;BME280;7220;49.450;11.052;2023-05-20T08:40:35;98147.91;;;18.06;67.30
14273;BME280;7220;49.450;11.052;2023-05-20T08:44:36;98160.03;;;18.21;66.72
14273;BME280;7220;49.450;11.052;2023-05-20T08:48:36;98156.84;;;18.37;66.34
14273;BME280;7220;49.450;11.052;2023-05-20T08:52:42;98151.44;;;18.58;65.07
14273;BME280;7220;49.450;11.052;2023-05-20T08:56:44;98142.16;;;18.72;63.96
14273;BME280;7220;49.450;11.052;2023-05-20T09:00:45;98141.78;;;18.87;63.66
14273;BME280;7220;49.450;11.052;2023-05-20T09:04:45;98146.09;;;18.99;63.07
14273;BME280;7220;49.450;11.052;2023-05-20T09:08:48;98140.28;;;19.04;63.05
14273;BME280;7220;49.450;11.052;2023-05-20T09:12:49;98139.94;;;19.18;62.54
14273;BME280;7220;49.450;11.052;2023-05-20T09:16:49;98136.78;;;19.13;62.41
14273;BME280;7220;49.450;11.052;2023-05-20T09:20:50;98134.81;;;19.35;62.40
14273;BME280;7220;49.450;11.052;2023-05-20T09:24:52;98143.19;;;19.42;61.90
14273;BME280;7220;49.450;11.052;2023-05-20T09:28:56;98147.78;;;19.70;60.70
14273;BME280;7220;49.450;11.052;2023-05-20T09:32:58;98148.78;;;19.89;60.45
14273;BME280;7220;49.450;11.052;2023-05-20T09:36:59;98145.91;;;20.10;60.04
14273;BME280;7220;49.450;11.052;2023-05-20T09:41:02;98146.84;;;20.39;58.87
14273;BME280;7220;49.450;11.052;2023-05-20T09:45:07;98142.09;;;20.60;58.40
14273;BME280;7220;49.450;11.052;2023-05-20T09:49:11;98134.34;;;20.85;57.05
14273;BME280;7220;49.450;11.052;2023-05-20T09:53:12;98130.03;;;21.20;56.09
14273;BME280;7220;49.450;11.052;2023-05-20T09:57:13;98123.44;;;21.51;55.08
14273;BME280;7220;49.450;11.052;2023-05-20T10:01:13;98121.94;;;21.66;53.32
14273;BME280;7220;49.450;11.052;2023-05-20T10:05:21;98114.09;;;21.81;53.00
14273;BME280;7220;49.450;11.052;2023-05-20T10:22:32;98097.00;;;21.99;51.63
14273;BME280;7220;49.450;11.052;2023-05-20T10:26:40;98095.75;;;22.11;51.30
14273;BME280;7220;49.450;11.052;2023-05-20T10:30:48;98095.03;;;22.09;51.46
14273;BME280;7220;49.450;11.052;2023-05-20T10:34:50;98095.75;;;22.19;51.91
14273;BME280;7220;49.450;11.052;2023-05-20T10:38:52;98088.88;;;22.43;51.17
14273;BME280;7220;49.450;11.052;2023-05-20T10:42:52;98081.13;;;22.57;50.15
14273;BME280;7220;49.450;11.052;2023-05-20T10:47:02;98086.41;;;22.66;49.22
14273;BME280;7220;49.450;11.052;2023-05-20T10:51:03;98081.34;;;22.72;49.16
14273;BME280;7220;49.450;11.052;2023-05-20T10:55:04;98080.56;;;22.79;48.55
14273;BME280;7220;49.450;11.052;2023-05-20T10:59:05;98072.44;;;22.88;48.32
14273;BME280;7220;49.450;11.052;2023-05-20T11:03:08;98078.25;;;23.01;48.67
14273;BME280;7220;49.450;11.052;2023-05-20T11:07:10;98069.19;;;23.27;48.42
14273;BME280;7220;49.450;11.052;2023-05-20T11:11:11;98058.00;;;24.21;46.39
14273;BME280;7220;49.450;11.052;2023-05-20T11:15:12;98045.41;;;26.84;41.28
14273;BME280;7220;49.450;11.052;2023-05-20T11:19:16;98049.84;;;27.86;38.85
14273;BME280;7220;49.450;11.052;2023-05-20T11:23:17;98044.63;;;29.52;35.52
14273;BME280;7220;49.450;11.052;2023-05-20T11:27:18;98040.78;;;29.33;35.58
14273;BME280;7220;49.450;11.052;2023-05-20T11:31:18;98050.75;;;29.81;34.40
14273;BME280;7220;49.450;11.052;2023-05-20T11:35:24;98048.84;;;29.82;34.49
14273;BME280;7220;49.450;11.052;2023-05-20T11:39:25;98042.50;;;30.42;33.53
14273;BME280;7220;49.450;11.052;2023-05-20T11:43:28;98033.63;;;28.35;36.15
14273;BME280;7220;49.450;11.052;2023-05-20T11:47:29;98027.28;;;28.28;37.26
14273;BME280;7220;49.450;11.052;2023-05-20T11:51:31;98022.03;;;28.33;37.49
14273;BME280;7220;49.450;11.052;2023-05-20T11:55:32;98017.97;;;27.94;37.71
14273;BME280;7220;49.450;11.052;2023-05-20T11:59:32;98019.41;;;27.90;37.89
14273;BME280;7220;49.450;11.052;2023-05-20T12:03:33;98016.13;;;28.01;37.99
14273;BME280;7220;49.450;11.052;2023-05-20T12:07:34;98036.06;;;27.73;37.90
14273;BME280;7220;49.450;11.052;2023-05-20T12:11:36;98030.78;;;27.93;37.49
14273;BME280;7220;49.450;11.052;2023-05-20T12:15:37;98034.34;;;28.15;37.32
14273;BME280;7220;49.450;11.052;2023-05-20T12:19:37;98038.34;;;27.91;37.11
14273;BME280;7220;49.450;11.052;2023-05-20T12:23:37;98027.59;;;27.90;37.20
14273;BME280;7220;49.450;11.052;2023-05-20T12:27:38;98017.22;;;27.78;37.29
14273;BME280;7220;49.450;11.052;2023-05-20T12:31:38;98014.75;;;27.83;37.70
14273;BME280;7220;49.450;11.052;2023-05-20T12:35:40;98016.44;;;27.84;37.30
14273;BME280;7220;49.450;11.052;2023-05-20T12:39:41;98021.09;;;27.91;37.12
14273;BME280;7220;49.450;11.052;2023-05-20T12:43:41;98024.59;;;28.06;37.23
14273;BME280;7220;49.450;11.052;2023-05-20T12:47:42;98022.59;;;28.22;37.15
14273;BME280;7220;49.450;11.052;2023-05-20T12:51:42;98017.97;;;28.57;36.50
14273;BME280;7220;49.450;11.052;2023-05-20T12:55:42;98011.75;;;29.39;35.50
14273;BME280;7220;49.450;11.052;2023-05-20T12:59:43;98010.44;;;29.28;35.35
14273;BME280;7220;49.450;11.052;2023-05-20T13:03:44;98008.75;;;28.65;35.79
14273;BME280;7220;49.450;11.052;2023-05-20T13:07:44;98011.16;;;28.82;36.14
14273;BME280;7220;49.450;11.052;2023-05-20T13:11:45;98023.16;;;29.49;35.05
14273;BME280;7220;49.450;11.052;2023-05-20T13:15:45;98003.16;;;29.75;35.56
14273;BME280;7220;49.450;11.052;2023-05-20T13:19:46;98002.88;;;29.30;35.25
14273;BME280;7220;49.450;11.052;2023-05-20T13:23:46;98002.31;;;28.79;36.06
14273;BME280;7220;49.450;11.052;2023-05-20T13:27:46;97998.72;;;28.37;36.68
14273;BME280;7220;49.450;11.052;2023-05-20T13:31:47;97992.47;;;28.08;37.61
14273;BME280;7220;49.450;11.052;2023-05-20T13:35:47;97991.66;;;27.86;37.09
14273;BME280;7220;49.450;11.052;2023-05-20T13:39:48;97988.91;;;27.58;37.92
14273;BME280;7220;49.450;11.052;2023-05-20T13:43:48;97977.09;;;27.29;38.21
14273;BME280;7220;49.450;11.052;2023-05-20T13:47:48;97985.66;;;27.26;39.04
14273;BME280;7220;49.450;11.052;2023-05-20T13:51:49;97969.41;;;27.39;38.51
14273;BME280;7220;49.450;11.052;2023-05-20T13:55:49;97977.09;;;27.29;38.74
14273;BME280;7220;49.450;11.052;2023-05-20T13:59:50;97968.34;;;27.12;38.82
14273;BME280;7220;49.450;11.052;2023-05-20T14:03:50;97966.47;;;26.97;38.79
14273;BME280;7220;49.450;11.052;2023-05-20T14:07:51;97953.28;;;26.79;39.46
14273;BME280;7220;49.450;11.052;2023-05-20T14:11:51;97948.03;;;26.63;39.84
14273;BME280;7220;49.450;11.052;2023-05-20T14:15:52;97944.91;;;26.44;39.95
14273;BME280;7220;49.450;11.052;2023-05-20T14:19:53;97939.16;;;26.39;40.65
14273;BME280;7220;49.450;11.052;2023-05-20T14:23:54;97930.34;;;26.07;40.82
14273;BME280;7220;49.450;11.052;2023-05-20T14:27:54;97934.78;;;26.08;40.71
14273;BME280;7220;49.450;11.052;2023-05-20T14:31:55;97929.13;;;25.94;41.14
14273;BME280;7220;49.450;11.052;2023-05-20T14:35:56;97924.81;;;25.85;41.33
14273;BME280;7220;49.450;11.052;2023-05-20T14:39:56;97929.66;;;25.75;41.64
14273;BME280;7220;49.450;11.052;2023-05-20T14:43:57;97922.81;;;25.64;42.08
14273;BME280;7220;49.450;11.052;2023-05-20T14:47:57;97913.03;;;25.55;42.22
14273;BME280;7220;49.450;11.052;2023-05-20T14:51:57;97902.28;;;25.38;42.79
14273;BME280;7220;49.450;11.052;2023-05-20T14:55:58;97898.38;;;25.41;42.68
14273;BME280;7220;49.450;11.052;2023-05-20T14:59:58;97912.00;;;25.56;41.75
14273;BME280;7220;49.450;11.052;2023-05-20T15:03:58;97896.25;;;25.81;42.17
14273;BME280;7220;49.450;11.052;2023-05-20T15:07:59;97896.81;;;25.91;42.31
14273;BME280;7220;49.450;11.052;2023-05-20T15:11:59;97896.34;;;25.88;41.45
14273;BME280;7220;49.450;11.052;2023-05-20T15:16:00;97892.50;;;25.82;40.95
14273;BME280;7220;49.450;11.052;2023-05-20T15:20:00;97895.78;;;25.92;40.91
14273;BME280;7220;49.450;11.052;2023-05-20T15:24:01;97896.28;;;26.11;40.45
14273;BME280;7220;49.450;11.052;2023-05-20T15:28:01;97880.03;;;26.18;39.93
14273;BME280;7220;49.450;11.052;2023-05-20T15:32:02;97874.19;;;26.21;40.13
14273;BME280;7220;49.450;11.052;2023-05-20T15:36:02;97877.50;;;26.16;39.67
14273;BME280;7220;49.450;11.052;2023-05-20T15:40:03;97876.94;;;26.21;39.62
14273;BME280;7220;49.450;11.052;2023-05-20T15:44:03;97878.69;;;26.28;39.73
14273;BME280;7220;49.450;11.052;2023-05-20T15:48:04;97872.81;;;26.10;39.98
14273;BME280;7220;49.450;11.052;2023-05-20T15:52:04;97871.47;;;26.06;40.19
14273;BME280;7220;49.450;11.052;2023-05-20T15:56:05;97872.69;;;26.03;40.75
14273;BME280;7220;49.450;11.052;2023-05-20T16:00:06;97865.50;;;25.95;40.64
14273;BME280;7220;49.450;11.052;2023-05-20T16:04:09;97863.78;;;25.64;41.13
14273;BME280;7220;49.450;11.052;2023-05-20T16:08:09;97866.41;;;25.73;41.51
14273;BME280;7220;49.450;11.052;2023-05-20T16:12:10;97870.91;;;25.65;41.52
14273;BME280;7220;49.450;11.052;2023-05-20T16:16:11;97868.59;;;25.62;41.54
14273;BME280;7220;49.450;11.052;2023-05-20T16:20:12;97869.22;;;25.64;41.75
14273;BME280;7220;49.450;11.052;2023-05-20T16:24:13;97872.22;;;25.40;42.27
14273;BME280;7220;49.450;11.052;2023-05-20T16:28:13;97862.50;;;25.22;42.45
14273;BME280;7220;49.450;11.052;2023-05-20T16:32:14;97875.56;;;25.03;43.25
14273;BME280;7220;49.450;11.052;2023-05-20T16:36:14;97883.19;;;25.08;43.14
14273;BME280;7220;49.450;11.052;2023-05-20T16:40:15;97883.81;;;24.95;42.98
14273;BME280;7220;49.450;11.052;2023-05-20T16:44:15;97886.88;;;24.92;43.47
14273;BME280;7220;49.450;11.052;2023-05-20T16:48:15;97884.16;;;24.92;43.53
14273;BME280;7220;49.450;11.052;2023-05-20T16:52:16;97892.69;;;24.89;43.18
14273;BME280;7220;49.450;11.052;2023-05-20T16:56:16;97885.06;;;25.08;43.35
14273;BME280;7220;49.450;11.052;2023-05-20T17:00:16;97888.28;;;25.26;42.92
14273;BME280;7220;49.450;11.052;2023-05-20T17:04:17;97891.75;;;25.88;41.88
14273;BME280;7220;49.450;11.052;2023-05-20T17:08:17;97891.47;;;25.98;42.06
14273;BME280;7220;49.450;11.052;2023-05-20T17:12:18;97894.66;;;25.87;42.39
14273;BME280;7220;49.450;11.052;2023-05-20T17:16:18;97890.34;;;25.77;43.05
14273;BME280;7220;49.450;11.052;2023-05-20T17:20:18;97897.50;;;25.63;43.15
14273;BME280;7220;49.450;11.052;2023-05-20T17:24:19;97905.19;;;25.60;43.07
14273;BME280;7220;49.450;11.052;2023-05-20T17:28:19;97889.31;;;25.48;43.61
14273;BME280;7220;49.450;11.052;2023-05-20T17:32:20;97888.56;;;25.40;43.46
14273;BME280;7220;49.450;11.052;2023-05-20T17:36:20;97888.75;;;25.30;43.52
14273;BME280;7220;49.450;11.052;2023-05-20T17:40:21;97895.75;;;25.09;43.50
14273;BME280;7220;49.450;11.052;2023-05-20T17:44:21;97897.38;;;24.95;43.94
14273;BME280;7220;49.450;11.052;2023-05-20T17:48:22;97892.63;;;24.66;44.32
14273;BME280;7220;49.450;11.052;2023-05-20T17:52:22;97906.31;;;24.49;44.05
14273;BME280;7220;49.450;11.052;2023-05-20T17:56:22;97905.22;;;24.35;44.40
14273;BME280;7220;49.450;11.052;2023-05-20T18:00:23;97914.78;;;24.23;44.73
14273;BME280;7220;49.450;11.052;2023-05-20T18:04:25;97908.22;;;24.09;44.96
14273;BME280;7220;49.450;11.052;2023-05-20T18:08:26;97909.81;;;23.87;45.58
14273;BME280;7220;49.450;11.052;2023-05-20T18:12:27;97915.09;;;23.72;45.80
14273;BME280;7220;49.450;11.052;2023-05-20T18:16:28;97914.28;;;23.63;45.98
14273;BME280;7220;49.450;11.052;2023-05-20T18:20:28;97914.66;;;23.43;46.77
14273;BME280;7220;49.450;11.052;2023-05-20T18:24:29;97915.34;;;23.21;47.22
14273;BME280;7220;49.450;11.052;2023-05-20T18:28:29;97911.41;;;23.15;47.66
14273;BME280;7220;49.450;11.052;2023-05-20T18:32:29;97912.28;;;23.07;47.78
14273;BME280;7220;49.450;11.052;2023-05-20T18:36:30;97903.47;;;22.97;48.16
14273;BME280;7220;49.450;11.052;2023-05-20T18:40:30;97911.91;;;22.85;48.18
14273;BME280;7220;49.450;11.052;2023-05-20T18:44:30;97923.09;;;22.82;48.40
14273;BME280;7220;49.450;11.052;2023-05-20T18:48:31;97928.50;;;22.66;48.52
14273;BME280;7220;49.450;11.052;2023-05-20T18:52:31;97932.50;;;22.53;49.14
14273;BME280;7220;49.450;11.052;2023-05-20T18:56:32;97916.25;;;22.45;49.65
14273;BME280;7220;49.450;11.052;2023-05-20T19:00:32;97929.72;;;22.37;50.10
14273;BME280;7220;49.450;11.052;2023-05-20T19:04:32;97940.88;;;22.26;50.41
14273;BME280;7220;49.450;11.052;2023-05-20T19:08:33;97935.69;;;22.06;50.80
14273;BME280;7220;49.450;11.052;2023-05-20T19:12:33;97944.06;;;21.86;52.08
14273;BME280;7220;49.450;11.052;2023-05-20T19:16:33;97943.03;;;21.79;52.28
14273;BME280;7220;49.450;11.052;2023-05-20T19:20:34;97937.06;;;21.75;52.90
14273;BME280;7220;49.450;11.052;2023-05-20T19:24:34;97939.59;;;21.51;53.55
14273;BME280;7220;49.450;11.052;2023-05-20T19:28:34;97941.66;;;21.31;53.69
14273;BME280;7220;49.450;11.052;2023-05-20T19:32:35;97947.28;;;21.19;54.84
14273;BME280;7220;49.450;11.052;2023-05-20T19:36:35;97947.53;;;21.26;54.34
14273;BME280;7220;49.450;11.052;2023-05-20T19:40:37;97954.22;;;21.22;54.83
14273;BME280;7220;49.450;11.052;2023-05-20T19:44:37;97952.31;;;21.14;55.49
14273;BME280;7220;49.450;11.052;2023-05-20T19:48:38;97960.19;;;21.07;55.56
14273;BME280;7220;49.450;11.052;2023-05-20T19:52:38;97957.41;;;20.99;56.22
14273;BME280;7220;49.450;11.052;2023-05-20T19:56:39;97957.19;;;20.92;55.88
14273;BME280;7220;49.450;11.052;2023-05-20T20:00:39;97961.50;;;20.85;56.64
14273;BME280;7220;49.450;11.052;2023-05-20T20:04:39;97970.38;;;20.77;57.04
14273;BME280;7220;49.450;11.052;2023-05-20T20:08:41;97965.28;;;20.74;57.27
14273;BME280;7220;49.450;11.052;2023-05-20T20:12:41;97968.69;;;20.76;56.92
14273;BME280;7220;49.450;11.052;2023-05-20T20:16:41;97975.47;;;20.80;57.50
14273;BME280;7220;49.450;11.052;2023-05-20T20:20:47;97972.38;;;20.75;57.44
14273;BME280;7220;49.450;11.052;2023-05-20T20:24:48;97966.97;;;20.75;57.74
14273;BME280;7220;49.450;11.052;2023-05-20T20:28:49;97958.22;;;20.63;58.36
14273;BME280;7220;49.450;11.052;2023-05-20T20:32:49;97961.38;;;20.59;58.53
14273;BME280;7220;49.450;11.052;2023-05-20T20:36:49;97974.84;;;20.41;58.83
14273;BME280;7220;49.450;11.052;2023-05-20T20:40:50;97951.09;;;20.44;58.81
14273;BME280;7220;49.450;11.052;2023-05-20T20:44:52;97961.25;;;20.32;60.00
14273;BME280;7220;49.450;11.052;2023-05-20T20:48:52;97959.81;;;20.38;59.30
14273;BME280;7220;49.450;11.052;2023-05-20T20:52:53;97956.13;;;20.29;59.64
14273;BME280;7220;49.450;11.052;2023-05-20T20:56:53;97963.53;;;20.27;60.28
14273;BME280;7220;49.450;11.052;2023-05-20T21:00:55;97957.34;;;20.17;60.29
14273;BME280;7220;49.450;11.052;2023-05-20T21:04:56;97943.75;;;20.09;61.08
14273;BME280;7220;49.450;11.052;2023-05-20T21:08:58;97949.59;;;20.04;61.20
14273;BME280;7220;49.450;11.052;2023-05-20T21:13:01;97958.84;;;20.01;60.95
14273;BME280;7220;49.450;11.052;2023-05-20T21:17:01;97951.03;;;19.98;61.56
14273;BME280;7220;49.450;11.052;2023-05-20T21:21:02;97944.09;;;19.96;61.53
14273;BME280;7220;49.450;11.052;2023-05-20T21:25:02;97949.94;;;19.91;62.12
14273;BME280;7220;49.450;11.052;2023-05-20T21:29:02;97941.69;;;19.83;62.12